Time;durP1;ratioP1;P1;durP2;ratioP2;P2;SDS_P1;SDS_P2;PMS_P1;PMS_P2;Temp;Humidity;BMP_temperature;BMP_pressure;BME280_temperature;BME280_humidity;BME280_pressure;Samples;Min_cycle;Max_cycle;Signal;HPM_P1;HPM_P2
2022/06/17 00:00:55;;;;;;;0.40;0.10;;;;;;;18.99;62.69;100595.14;103999;1281;109677;-71
2022/06/17 00:03:25;;;;;;;0.40;0.10;;;;;;;19.00;63.06;100589.68;104038;1279;139137;-69
2022/06/17 00:05:55;;;;;;;0.40;0.10;;;;;;;19.01;63.05;100592.48;104062;1280;107809;-72
2022/06/17 00:08:44;;;;;;;0.40;0.10;;;;;;;19.08;62.94;100594.81;104108;1279;95586;-71
2022/06/17 00:11:15;;;;;;;0.40;0.10;;;;;;;19.07;62.80;100591.09;104025;1280;138604;-71
2022/06/17 00:13:44;;;;;;;0.40;0.10;;;;;;;19.00;62.82;100590.91;103992;1281;109772;-71
2022/06/17 00:16:13;;;;;;;0.40;0.10;;;;;;;18.97;62.89;100592.73;103927;1279;141789;-73
2022/06/17 00:18:42;;;;;;;0.40;0.10;;;;;;;18.94;62.76;100591.34;104230;1279;109702;-72
2022/06/17 00:21:21;;;;;;;0.40;0.10;;;;;;;18.91;62.75;100587.91;103889;1279;140006;-71
2022/06/17 00:23:49;;;;;;;0.40;0.10;;;;;;;18.87;62.48;100587.89;103993;1280;95171;-71
2022/06/17 00:26:17;;;;;;;0.40;0.10;;;;;;;18.86;62.26;100586.67;103993;1279;109692;-71
2022/06/17 00:28:45;;;;;;;0.40;0.10;;;;;;;18.79;62.30;100592.32;103928;1281;139018;-71
2022/06/17 00:31:14;;;;;;;0.40;0.10;;;;;;;18.78;62.43;100593.60;103998;1279;108559;-69
2022/06/17 00:33:43;;;;;;;0.40;0.10;;;;;;;18.78;62.41;100592.54;104041;1279;139785;-71
2022/06/17 00:36:18;;;;;;;0.40;0.10;;;;;;;18.70;62.25;100589.71;104033;1279;95168;-71
2022/06/17 00:38:46;;;;;;;0.40;0.10;;;;;;;18.60;62.19;100587.63;104028;1280;109691;-71
2022/06/17 00:41:18;;;;;;;0.40;0.10;;;;;;;18.47;62.04;100588.17;103868;1280;139149;-70
2022/06/17 00:43:46;;;;;;;0.40;0.10;;;;;;;18.34;61.97;100587.61;103990;1280;108923;-71
2022/06/17 00:46:42;;;;;;;0.40;0.10;;;;;;;18.27;61.77;100590.34;103941;1279;138248;-71
2022/06/17 00:49:32;;;;;;;0.40;0.10;;;;;;;18.19;61.64;100588.11;104479;1279;95229;-71
2022/06/17 00:52:06;;;;;;;0.40;0.10;;;;;;;18.11;61.25;100587.82;103987;1279;138391;-71
2022/06/17 00:54:58;;;;;;;0.40;0.10;;;;;;;18.10;61.30;100589.14;104052;1279;99387;-71
2022/06/17 00:57:34;;;;;;;0.40;0.10;;;;;;;18.07;61.21;100590.41;103873;1281;138921;-71
2022/06/17 01:00:24;;;;;;;0.40;0.10;;;;;;;17.99;61.21;100588.48;104018;1280;95660;-71
2022/06/17 01:03:00;;;;;;;0.40;0.10;;;;;;;17.90;61.39;100589.63;104276;1279;95203;-71
2022/06/17 01:05:38;;;;;;;0.40;0.10;;;;;;;17.85;61.22;100587.03;103964;1279;139573;-72
2022/06/17 01:11:13;;;;;;;0.40;0.10;;;;;;;17.72;61.06;100592.36;103634;1280;138660;-72
2022/06/17 01:13:45;;;;;;;0.40;0.10;;;;;;;17.71;61.09;100593.15;103947;1280;95697;-73
2022/06/17 01:16:14;;;;;;;0.40;0.10;;;;;;;17.72;61.28;100596.52;103929;1280;139208;-71
2022/06/17 01:18:44;;;;;;;0.40;0.10;;;;;;;17.72;61.41;100601.52;104025;1279;110196;-71
2022/06/17 01:21:27;;;;;;;0.40;0.10;;;;;;;17.74;61.49;100602.15;103960;1280;138982;-71
2022/06/17 01:23:56;;;;;;;0.40;0.10;;;;;;;17.71;61.58;100605.39;104036;1280;108752;-71
2022/06/17 01:26:24;;;;;;;0.40;0.10;;;;;;;17.65;61.89;100608.41;104025;1280;95251;-71
2022/06/17 01:28:53;;;;;;;0.40;0.10;;;;;;;17.65;61.93;100612.02;104038;1280;139731;-71
2022/06/17 01:31:22;;;;;;;0.40;0.20;;;;;;;17.62;61.92;100614.83;104067;1279;109859;-70
2022/06/17 01:33:50;;;;;;;0.40;0.10;;;;;;;17.59;62.07;100621.45;103759;1281;139547;-71
2022/06/17 01:36:27;;;;;;;0.40;0.10;;;;;;;17.58;61.87;100625.44;103987;1280;108374;-71
2022/06/17 01:38:58;;;;;;;0.40;0.20;;;;;;;17.56;61.62;100628.27;103935;1281;96197;-71
2022/06/17 01:41:29;;;;;;;0.40;0.10;;;;;;;17.56;61.21;100630.92;103882;1281;139338;-71
2022/06/17 01:44:05;;;;;;;0.40;0.10;;;;;;;17.58;61.07;100634.09;104060;1279;110239;-71
2022/06/17 01:46:40;;;;;;;0.40;0.10;;;;;;;17.57;60.93;100637.16;103842;1279;138665;-70
2022/06/17 01:49:16;;;;;;;0.40;0.20;;;;;;;17.48;61.11;100642.80;104019;1279;108815;-70
2022/06/17 01:51:58;;;;;;;0.40;0.10;;;;;;;17.42;61.21;100637.60;103895;1280;138509;-70
2022/06/17 01:54:31;;;;;;;0.40;0.20;;;;;;;17.39;61.25;100640.41;104141;1280;95203;-72
2022/06/17 01:57:03;;;;;;;0.40;0.20;;;;;;;17.37;61.27;100637.45;104031;1280;109768;-71
2022/06/17 01:59:45;;;;;;;0.40;0.20;;;;;;;17.36;61.40;100643.99;104083;1280;139062;-71
2022/06/17 02:02:15;;;;;;;0.40;0.20;;;;;;;17.35;61.34;100641.51;104160;1280;108739;-74
2022/06/17 02:04:48;;;;;;;0.40;0.20;;;;;;;17.26;61.27;100646.81;104057;1280;138598;-70
2022/06/17 02:07:28;;;;;;;0.40;0.20;;;;;;;17.15;61.05;100647.70;104211;1277;95148;-71
2022/06/17 02:09:56;;;;;;;0.40;0.20;;;;;;;17.05;60.89;100650.36;103948;1279;138519;-71
2022/06/17 02:12:27;;;;;;;0.40;0.10;;;;;;;17.00;60.84;100651.87;104173;1280;99454;-71
2022/06/17 02:15:01;;;;;;;0.40;0.10;;;;;;;17.01;61.02;100656.46;104131;1280;107838;-70
2022/06/17 02:18:06;;;;;;;0.40;0.10;;;;;;;17.01;61.06;100664.54;104177;1279;95739;-71
2022/06/17 02:20:41;;;;;;;0.40;0.20;;;;;;;16.97;61.13;100664.72;104401;1280;95222;-72
2022/06/17 02:23:10;;;;;;;0.40;0.10;;;;;;;16.96;61.25;100668.77;103839;1281;138829;-72
2022/06/17 02:25:43;;;;;;;0.40;0.20;;;;;;;16.93;61.50;100671.74;104141;1280;99502;-72
2022/06/17 02:28:13;;;;;;;0.40;0.20;;;;;;;16.91;61.34;100670.77;104061;1280;138767;-71
2022/06/17 02:30:42;;;;;;;0.40;0.20;;;;;;;16.92;61.46;100673.44;104178;1279;95723;-70
2022/06/17 02:33:12;;;;;;;0.40;0.20;;;;;;;16.89;61.36;100671.02;104444;1279;138737;-70
2022/06/17 02:35:43;;;;;;;0.40;0.20;;;;;;;16.87;61.25;100669.86;104230;1280;108630;-71
2022/06/17 02:38:18;;;;;;;0.40;0.20;;;;;;;16.87;61.33;100671.29;104199;1278;99389;-71
2022/06/17 02:40:51;;;;;;;0.40;0.20;;;;;;;16.84;61.33;100671.98;104152;1279;138430;-70
2022/06/17 02:43:27;;;;;;;0.40;0.10;;;;;;;16.83;61.41;100673.27;104161;1280;95707;-71
2022/06/17 02:46:01;;;;;;;0.40;0.10;;;;;;;16.79;61.44;100675.27;104104;1279;139035;-70
2022/06/17 02:48:44;;;;;;;0.40;0.20;;;;;;;16.82;61.52;100677.28;104566;1280;109824;-70
2022/06/17 02:51:13;;;;;;;0.40;0.20;;;;;;;16.87;61.44;100678.29;104043;1279;139478;-71
2022/06/17 02:53:43;;;;;;;0.40;0.20;;;;;;;16.91;61.27;100684.59;104313;1280;109340;-70
2022/06/17 02:56:25;;;;;;;0.40;0.20;;;;;;;16.93;61.39;100691.48;104100;1280;95256;-71
2022/06/17 02:59:11;;;;;;;0.40;0.20;;;;;;;16.96;61.40;100693.52;104072;1279;138910;-71
2022/06/17 03:01:44;;;;;;;0.40;0.10;;;;;;;16.90;61.38;100694.48;104144;1280;108672;-71
2022/06/17 03:04:26;;;;;;;0.40;0.20;;;;;;;16.86;61.53;100700.75;103981;1280;138930;-71
2022/06/17 03:06:54;;;;;;;0.40;0.20;;;;;;;16.86;61.48;100702.17;104158;1280;109758;-71
2022/06/17 03:09:25;;;;;;;0.40;0.20;;;;;;;16.82;61.31;100702.92;104103;1280;139352;-71
2022/06/17 03:12:00;;;;;;;0.40;0.10;;;;;;;16.80;61.34;100707.13;104223;1280;95243;-71
2022/06/17 03:14:34;;;;;;;0.40;0.20;;;;;;;16.79;60.85;100709.71;104203;1280;109596;-71
2022/06/17 03:17:07;;;;;;;0.40;0.20;;;;;;;16.72;60.60;100712.52;104355;1280;138257;-72
2022/06/17 03:19:37;;;;;;;0.40;0.20;;;;;;;16.71;60.52;100710.56;104275;1279;108793;-71
2022/06/17 03:22:09;;;;;;;0.40;0.20;;;;;;;16.68;60.26;100713.45;104003;1280;139069;-70
2022/06/17 03:24:49;;;;;;;0.40;0.20;;;;;;;16.67;60.34;100715.80;104700;1280;95725;-70
2022/06/17 03:27:26;;;;;;;0.40;0.20;;;;;;;16.70;60.33;100720.66;104103;1280;138870;-71
2022/06/17 03:29:56;;;;;;;0.40;0.20;;;;;;;16.68;60.07;100719.72;104157;1280;99460;-71
2022/06/17 03:32:38;;;;;;;0.40;0.20;;;;;;;16.61;60.25;100719.50;104258;1280;108865;-70
2022/06/17 03:35:16;;;;;;;0.40;0.20;;;;;;;16.62;60.37;100721.95;103989;1280;138491;-70
2022/06/17 03:37:55;;;;;;;0.40;0.20;;;;;;;16.63;60.01;100722.80;104176;1278;95152;-71
2022/06/17 03:40:32;;;;;;;0.40;0.20;;;;;;;16.63;60.30;100723.54;104052;1280;139179;-71
2022/06/17 03:43:09;;;;;;;0.40;0.20;;;;;;;16.66;59.91;100724.66;104216;1279;99394;-71
2022/06/17 03:45:49;;;;;;;0.40;0.20;;;;;;;16.66;59.83;100725.91;104057;1280;138904;-71
2022/06/17 03:48:23;;;;;;;0.40;0.20;;;;;;;16.63;59.56;100728.55;104142;1280;95547;-70
2022/06/17 03:50:52;;;;;;;0.40;0.20;;;;;;;16.58;59.79;100731.84;104130;1281;95219;-71
2022/06/17 03:53:34;;;;;;;0.40;0.20;;;;;;;16.54;59.98;100734.68;103947;1281;138985;-69
2022/06/17 03:56:11;;;;;;;0.40;0.20;;;;;;;16.52;60.12;100730.46;104206;1278;99671;-70
2022/06/17 03:58:40;;;;;;;0.40;0.20;;;;;;;16.50;60.06;100729.31;104210;1280;138756;-70
2022/06/17 04:01:19;;;;;;;0.40;0.20;;;;;;;16.53;60.12;100733.65;104257;1281;95136;-69
2022/06/17 04:03:57;;;;;;;0.40;0.20;;;;;;;16.53;60.19;100735.45;104036;1280;138967;-71
2022/06/17 04:06:29;;;;;;;0.40;0.20;;;;;;;16.55;60.19;100737.14;104322;1278;109352;-72
2022/06/17 04:09:05;;;;;;;0.40;0.20;;;;;;;16.54;60.38;100739.36;104189;1281;99409;-71
2022/06/17 04:11:37;;;;;;;0.40;0.20;;;;;;;16.61;60.38;100742.42;104049;1281;137850;-71
2022/06/17 04:14:23;;;;;;;0.40;0.20;;;;;;;16.68;60.36;100744.27;104167;1279;95671;-71
2022/06/17 04:17:14;;;;;;;0.40;0.20;;;;;;;16.81;60.18;100743.86;103992;1281;138931;-71
2022/06/17 04:19:53;;;;;;;0.40;0.20;;;;;;;16.84;59.72;100747.64;104127;1280;109695;-71
2022/06/17 04:22:27;;;;;;;0.40;0.20;;;;;;;16.95;59.82;100747.20;104154;1281;138248;-71
2022/06/17 04:25:44;;;;;;;0.40;0.20;;;;;;;17.05;59.76;100748.85;104110;1280;107956;-70
2022/06/17 04:28:16;;;;;;;0.40;0.20;;;;;;;17.16;59.33;100749.95;103982;1280;138640;-71
2022/06/17 04:30:51;;;;;;;0.40;0.20;;;;;;;17.17;58.31;100752.20;104130;1280;95696;-70
2022/06/17 04:33:27;;;;;;;0.40;0.20;;;;;;;17.20;58.40;100756.95;104062;1280;137165;-70
2022/06/17 04:36:12;;;;;;;0.40;0.10;;;;;;;17.27;58.14;100751.75;104179;1278;99815;-71
2022/06/17 04:39:21;;;;;;;0.40;0.20;;;;;;;17.34;58.38;100756.23;104069;1281;108975;-71
2022/06/17 04:42:16;;;;;;;0.40;0.20;;;;;;;17.45;58.21;100758.60;104097;1280;95230;-71
2022/06/17 04:44:45;;;;;;;0.40;0.10;;;;;;;17.50;58.05;100760.70;104150;1280;95648;-71
2022/06/17 04:47:19;;;;;;;0.40;0.10;;;;;;;17.54;57.61;100764.40;103984;1281;138641;-71
2022/06/17 04:49:53;;;;;;;0.40;0.10;;;;;;;17.56;57.18;100765.58;104159;1280;99465;-70
2022/06/17 04:52:27;;;;;;;0.40;0.20;;;;;;;17.54;57.05;100767.13;103980;1281;138169;-69
2022/06/17 04:55:13;;;;;;;0.40;0.20;;;;;;;17.55;57.23;100766.00;104117;1280;96037;-70
2022/06/17 04:58:04;;;;;;;0.40;0.20;;;;;;;17.69;57.64;100769.05;103693;1281;138592;-71
2022/06/17 05:00:32;;;;;;;0.40;0.20;;;;;;;17.83;56.98;100770.33;104093;1280;110225;-70
2022/06/17 05:03:01;;;;;;;0.40;0.20;;;;;;;17.81;55.98;100770.48;104116;1279;98140;-70
2022/06/17 05:05:38;;;;;;;0.40;0.10;;;;;;;17.77;56.29;100766.02;104008;1281;137844;-71
2022/06/17 05:08:20;;;;;;;0.40;0.10;;;;;;;17.84;56.48;100766.00;104091;1281;95561;-68
2022/06/17 05:10:59;;;;;;;0.40;0.10;;;;;;;17.88;56.20;100768.63;103986;1281;138325;-70
2022/06/17 05:13:31;;;;;;;0.40;0.20;;;;;;;17.95;56.47;100762.05;104109;1280;110363;-71
2022/06/17 05:16:00;;;;;;;0.40;0.10;;;;;;;18.02;56.38;100762.40;103981;1280;138478;-71
2022/06/17 05:18:29;;;;;;;0.40;0.10;;;;;;;18.05;55.92;100762.44;104055;1280;109497;-71
2022/06/17 05:21:24;;;;;;;0.40;0.20;;;;;;;18.11;56.67;100761.41;103759;1280;138801;-71
2022/06/17 05:23:59;;;;;;;0.40;0.20;;;;;;;18.21;56.40;100758.72;104072;1281;95159;-69
2022/06/17 05:26:30;;;;;;;0.40;0.20;;;;;;;18.32;56.14;100764.29;104065;1280;109983;-70
2022/06/17 05:28:59;;;;;;;0.40;0.10;;;;;;;18.42;55.96;100767.00;103931;1281;138566;-70
2022/06/17 05:31:32;;;;;;;0.40;0.10;;;;;;;18.52;55.75;100770.21;104095;1281;109276;-70
2022/06/17 05:34:04;;;;;;;0.40;0.10;;;;;;;18.53;55.21;100770.88;103988;1278;138987;-71
2022/06/17 05:36:33;;;;;;;0.40;0.10;;;;;;;18.54;55.29;100775.66;104086;1281;95238;-70
2022/06/17 05:39:05;;;;;;;0.40;0.10;;;;;;;18.54;55.16;100775.70;103996;1281;110032;-70
2022/06/17 05:41:32;;;;;;;0.40;0.10;;;;;;;18.55;55.34;100777.27;103914;1281;138685;-71
2022/06/17 05:44:00;;;;;;;0.40;0.10;;;;;;;18.56;55.20;100779.17;104025;1281;108742;-71
2022/06/17 05:46:43;;;;;;;0.40;0.10;;;;;;;18.63;55.62;100777.22;103948;1279;140584;-71
2022/06/17 05:49:38;;;;;;;0.40;0.10;;;;;;;18.63;55.74;100784.20;103761;1281;95844;-70
2022/06/17 05:52:15;;;;;;;0.40;0.10;;;;;;;18.69;55.73;100780.67;103953;1280;138165;-71
2022/06/17 05:55:03;;;;;;;0.40;0.10;;;;;;;18.73;55.88;100781.86;104036;1280;98444;-71
2022/06/17 05:57:32;;;;;;;0.40;0.10;;;;;;;18.79;55.60;100783.52;103935;1281;138601;-71
2022/06/17 06:00:00;;;;;;;0.40;0.10;;;;;;;18.88;55.64;100783.94;103976;1281;95320;-70
2022/06/17 06:02:39;;;;;;;0.40;0.10;;;;;;;18.94;55.11;100786.12;104086;1281;95533;-71
2022/06/17 06:05:20;;;;;;;0.40;0.10;;;;;;;18.92;54.99;100785.38;103964;1281;138162;-71
2022/06/17 06:07:50;;;;;;;0.40;0.10;;;;;;;18.90;55.43;100784.38;104084;1281;98360;-70
2022/06/17 06:10:20;;;;;;;0.40;0.10;;;;;;;18.92;55.27;100788.77;103918;1279;138494;-71
2022/06/17 06:12:56;;;;;;;0.40;0.10;;;;;;;18.96;55.71;100787.13;104102;1280;95163;-71
2022/06/17 06:15:39;;;;;;;0.40;0.10;;;;;;;18.94;55.51;100783.29;103982;1280;138959;-72
2022/06/17 06:18:35;;;;;;;0.40;0.10;;;;;;;18.88;55.81;100785.02;103954;1281;110318;-70
2022/06/17 06:21:11;;;;;;;0.40;0.10;;;;;;;18.83;55.81;100783.84;104131;1280;99426;-70
2022/06/17 06:23:44;;;;;;;0.40;0.10;;;;;;;18.83;56.22;100780.08;103674;1279;108892;-69
2022/06/17 06:26:20;;;;;;;0.40;0.10;;;;;;;18.87;55.81;100775.90;103560;1281;95514;-71
2022/06/17 06:29:15;;;;;;;0.40;0.10;;;;;;;18.96;55.66;100776.54;103936;1280;138526;-69
2022/06/17 06:31:44;;;;;;;0.40;0.10;;;;;;;19.03;54.91;100783.67;103553;1280;110262;-71
2022/06/17 06:34:26;;;;;;;0.40;0.10;;;;;;;19.05;54.72;100784.47;103973;1280;139456;-71
2022/06/17 06:36:54;;;;;;;0.40;0.10;;;;;;;19.10;54.41;100784.59;103590;1280;108123;-70
2022/06/17 06:39:23;;;;;;;0.40;0.10;;;;;;;19.06;53.74;100787.46;103712;1277;138992;-69
2022/06/17 06:41:53;;;;;;;0.40;0.10;;;;;;;19.04;53.84;100787.56;103622;1280;95192;-70
2022/06/17 06:44:21;;;;;;;0.40;0.10;;;;;;;19.01;53.93;100788.45;103554;1280;109668;-69
2022/06/17 06:47:03;;;;;;;0.40;0.10;;;;;;;19.00;52.91;100783.87;103966;1280;138897;-70
2022/06/17 06:49:37;;;;;;;0.40;0.10;;;;;;;19.05;53.59;100787.73;104041;1280;108744;-69
2022/06/17 06:52:05;;;;;;;0.40;0.10;;;;;;;19.17;53.88;100787.20;103469;1279;138045;-70
2022/06/17 06:54:33;;;;;;;0.40;0.10;;;;;;;19.21;53.05;100788.28;104101;1278;95555;-70
2022/06/17 06:57:01;;;;;;;0.40;0.10;;;;;;;19.16;53.21;100790.17;104014;1280;109759;-69
2022/06/17 06:59:49;;;;;;;0.40;0.10;;;;;;;19.16;53.13;100793.20;103619;1280;99168;-71
2022/06/17 07:02:18;;;;;;;0.40;0.10;;;;;;;19.21;53.17;100792.05;104039;1278;108810;-70
2022/06/17 07:04:47;;;;;;;0.40;0.10;;;;;;;19.24;52.62;100791.70;103960;1280;138455;-70
2022/06/17 07:07:15;;;;;;;0.40;0.10;;;;;;;19.29;53.37;100787.63;103880;1280;95359;-70
2022/06/17 07:09:42;;;;;;;0.40;0.10;;;;;;;19.40;52.94;100785.00;103946;1279;138257;-69
2022/06/17 07:12:11;;;;;;;0.40;0.10;;;;;;;19.48;52.83;100785.85;104080;1279;99308;-71
2022/06/17 07:14:39;;;;;;;0.40;0.10;;;;;;;19.52;52.71;100784.31;104060;1280;108856;-70
2022/06/17 07:17:08;;;;;;;0.40;0.10;;;;;;;19.58;52.20;100782.02;103989;1280;138256;-70
2022/06/17 07:19:35;;;;;;;0.40;0.10;;;;;;;19.55;51.80;100782.17;104080;1279;95129;-70
2022/06/17 07:22:03;;;;;;;0.40;0.10;;;;;;;19.58;52.30;100788.49;103934;1279;138094;-70
2022/06/17 07:24:31;;;;;;;0.40;0.10;;;;;;;19.65;52.42;100789.15;104041;1280;98915;-69
2022/06/17 07:26:59;;;;;;;0.40;0.10;;;;;;;19.75;52.30;100788.77;103517;1279;108962;-70
2022/06/17 07:29:27;;;;;;;0.40;0.10;;;;;;;19.85;52.60;100788.23;103403;1280;138209;-70
2022/06/17 07:31:55;;;;;;;0.40;0.10;;;;;;;19.91;52.21;100794.94;103575;1280;95731;-70
2022/06/17 07:34:23;;;;;;;0.40;0.10;;;;;;;19.92;51.94;100796.86;104032;1279;138418;-69
2022/06/17 07:40:00;;;;;;;0.40;0.10;;;;;;;19.99;51.27;100796.59;103979;1279;138224;-70
2022/06/17 07:42:37;;;;;;;0.40;0.10;;;;;;;20.01;51.30;100793.02;104024;1280;96417;-70
2022/06/17 07:45:12;;;;;;;0.40;0.10;;;;;;;20.11;51.34;100790.67;104089;1280;95833;-70
2022/06/17 07:47:42;;;;;;;0.40;0.10;;;;;;;20.21;50.94;100790.80;104143;1279;110721;-71
2022/06/17 07:50:15;;;;;;;0.40;0.10;;;;;;;20.30;50.40;100786.83;104270;1279;99958;-71
2022/06/17 07:52:43;;;;;;;0.40;0.10;;;;;;;20.39;50.58;100789.69;104127;1279;138447;-71
2022/06/17 07:55:12;;;;;;;0.40;0.10;;;;;;;20.46;49.04;100791.45;104101;1280;95815;-68
2022/06/17 07:57:42;;;;;;;0.40;0.10;;;;;;;20.47;49.49;100790.50;103546;1279;138373;-70
2022/06/17 08:00:18;;;;;;;0.40;0.10;;;;;;;20.54;49.89;100788.43;103614;1280;109712;-67
2022/06/17 08:02:47;;;;;;;0.40;0.10;;;;;;;20.67;48.88;100784.55;103654;1280;99441;-68
2022/06/17 08:05:16;;;;;;;0.40;0.10;;;;;;;20.72;49.26;100782.63;103516;1280;138236;-70
2022/06/17 08:07:44;;;;;;;0.40;0.10;;;;;;;20.77;49.04;100785.38;103609;1280;95198;-70
2022/06/17 08:10:16;;;;;;;0.40;0.10;;;;;;;20.80;48.95;100786.14;103400;1279;138121;-69
2022/06/17 08:12:44;;;;;;;0.40;0.10;;;;;;;20.90;49.20;100791.81;103705;1279;109749;-69
2022/06/17 08:15:13;;;;;;;0.40;0.10;;;;;;;20.97;48.75;100789.21;103469;1278;138843;-70
2022/06/17 08:17:42;;;;;;;0.40;0.10;;;;;;;21.04;48.30;100794.53;103361;1279;108775;-69
2022/06/17 08:20:22;;;;;;;0.40;0.10;;;;;;;21.08;47.91;100794.64;104029;1277;95752;-68
2022/06/17 08:22:50;;;;;;;0.40;0.10;;;;;;;21.16;47.47;100792.48;103959;1280;140495;-69
2022/06/17 08:25:19;;;;;;;0.40;0.10;;;;;;;21.26;47.23;100790.45;103679;1279;109737;-69
2022/06/17 08:27:53;;;;;;;0.40;0.10;;;;;;;21.42;47.86;100794.25;103413;1280;151466;-70
2022/06/17 08:30:25;;;;;;;0.40;0.10;;;;;;;21.57;47.44;100792.58;103626;1280;108810;-68
2022/06/17 08:32:55;;;;;;;0.40;0.10;;;;;;;21.60;47.22;100793.09;103542;1279;95706;-70
2022/06/17 08:35:31;;;;;;;0.40;0.10;;;;;;;21.64;47.16;100787.75;103914;1278;138055;-70
2022/06/17 08:38:06;;;;;;;0.40;0.10;;;;;;;21.69;46.87;100794.83;103642;1279;109914;-70
2022/06/17 08:40:48;;;;;;;0.40;0.10;;;;;;;21.74;47.31;100801.21;103695;1279;138479;-70
2022/06/17 08:43:46;;;;;;;0.40;0.10;;;;;;;21.92;46.49;100804.89;104481;1279;108826;-69
2022/06/17 08:46:46;;;;;;;0.40;0.10;;;;;;;22.17;46.59;100805.72;103965;1279;138229;-73
2022/06/17 08:49:33;;;;;;;0.40;0.10;;;;;;;22.39;46.42;100800.48;104124;1279;95138;-70
2022/06/17 08:52:17;;;;;;;0.40;0.10;;;;;;;22.62;45.29;100802.65;103649;1279;138099;-71
2022/06/17 08:54:54;;;;;;;0.40;0.10;;;;;;;22.78;44.78;100797.54;104195;1278;99922;-71
2022/06/17 08:57:32;;;;;;;0.40;0.10;;;;;;;22.92;44.65;100798.39;103959;1277;138172;-70
2022/06/17 09:00:18;;;;;;;0.40;0.10;;;;;;;23.01;44.83;100796.82;104098;1280;95313;-70
2022/06/17 09:02:46;;;;;;;0.40;0.10;;;;;;;22.95;44.76;100802.48;104087;1280;95332;-70
2022/06/17 09:05:43;;;;;;;0.40;0.10;;;;;;;23.10;44.09;100805.55;104034;1279;139030;-70
2022/06/17 09:08:36;;;;;;;0.40;0.10;;;;;;;23.14;42.93;100808.02;104061;1279;99481;-69
2022/06/17 09:11:24;;;;;;;0.40;0.10;;;;;;;23.18;42.84;100806.84;103916;1278;138082;-69
2022/06/17 09:14:15;;;;;;;0.40;0.10;;;;;;;23.27;42.29;100802.36;103473;1279;95719;-70
2022/06/17 09:16:50;;;;;;;0.40;0.10;;;;;;;23.49;42.43;100809.70;103979;1279;138251;-70
2022/06/17 09:19:28;;;;;;;0.40;0.10;;;;;;;23.89;41.89;100817.74;104140;1279;109824;-70
2022/06/17 09:22:02;;;;;;;0.40;0.10;;;;;;;24.59;40.89;100821.33;103979;1279;138226;-69
2022/06/17 09:24:43;;;;;;;0.40;0.10;;;;;;;25.60;38.67;100817.37;104045;1279;107816;-70
2022/06/17 09:27:28;;;;;;;0.40;0.10;;;;;;;26.54;38.14;100818.04;103991;1279;138373;-70
2022/06/17 09:30:22;;;;;;;0.40;0.10;;;;;;;27.62;35.40;100808.66;104106;1280;95137;-70
2022/06/17 09:32:59;;;;;;;0.40;0.00;;;;;;;28.52;34.10;100819.99;104041;1279;108722;-70
2022/06/17 09:35:48;;;;;;;0.40;0.00;;;;;;;28.10;34.66;100830.31;103951;1280;138461;-68
2022/06/17 09:38:23;;;;;;;0.40;0.00;;;;;;;27.32;35.18;100833.04;103618;1279;109351;-69
2022/06/17 09:40:59;;;;;;;0.40;0.00;;;;;;;27.64;34.70;100829.27;103465;1280;138752;-69
2022/06/17 09:43:27;;;;;;;0.40;0.00;;;;;;;28.82;33.58;100825.15;103594;1280;97003;-68
2022/06/17 09:46:17;;;;;;;0.40;0.00;;;;;;;29.79;32.47;100825.86;103449;1279;138297;-69
2022/06/17 09:49:12;;;;;;;0.40;0.00;;;;;;;30.37;30.42;100831.20;103522;1280;99831;-69
2022/06/17 09:51:48;;;;;;;0.40;0.00;;;;;;;29.32;31.36;100834.19;103249;1277;138306;-70
2022/06/17 09:54:31;;;;;;;0.40;0.00;;;;;;;28.61;32.22;100833.75;104005;1279;95252;-68
2022/06/17 09:57:25;;;;;;;0.40;0.00;;;;;;;29.39;32.03;100827.33;103525;1279;96125;-69
2022/06/17 10:00:07;;;;;;;0.40;0.00;;;;;;;30.65;30.73;100834.13;103505;1277;110367;-68
2022/06/17 10:02:48;;;;;;;0.40;0.00;;;;;;;31.60;29.35;100826.85;103601;1279;99702;-69
2022/06/17 10:05:40;;;;;;;0.40;0.00;;;;;;;32.05;28.85;100830.92;103949;1279;138154;-68
2022/06/17 10:08:17;;;;;;;0.40;0.00;;;;;;;32.08;28.07;100835.00;104264;1279;95231;-68
2022/06/17 10:10:55;;;;;;;0.40;0.00;;;;;;;31.77;27.49;100839.45;103401;1277;138090;-68
2022/06/17 10:13:26;;;;;;;0.40;0.00;;;;;;;30.83;28.89;100842.40;103489;1279;109304;-69
2022/06/17 10:19:45;;;;;;;0.40;0.00;;;;;;;30.55;29.66;100842.77;103099;1281;108949;-69
2022/06/17 10:22:29;;;;;;;0.40;0.00;;;;;;;29.63;30.19;100842.70;103846;1281;138717;-70
2022/06/17 10:25:41;;;;;;;0.40;0.00;;;;;;;29.32;30.94;100841.00;103891;1281;95208;-69
2022/06/17 10:28:35;;;;;;;0.40;0.00;;;;;;;30.24;30.30;100835.48;103020;1287;138378;-70
2022/06/17 10:31:23;;;;;;;0.40;0.00;;;;;;;29.69;30.48;100836.83;103315;1281;98306;-68
2022/06/17 10:33:52;;;;;;;0.40;0.00;;;;;;;28.92;31.32;100834.63;103164;1280;138338;-68
2022/06/17 10:36:20;;;;;;;0.40;0.00;;;;;;;28.15;31.76;100841.71;103326;1281;95266;-68
2022/06/17 10:38:48;;;;;;;0.40;0.00;;;;;;;27.53;33.16;100837.58;103228;1281;95257;-70
2022/06/17 10:41:17;;;;;;;0.40;0.00;;;;;;;27.39;33.95;100839.17;103183;1281;138144;-69
2022/06/17 10:43:51;;;;;;;0.40;0.00;;;;;;;28.65;33.19;100835.02;103382;1281;99406;-69
2022/06/17 10:46:26;;;;;;;0.40;0.00;;;;;;;29.79;30.84;100832.52;103148;1281;138132;-68
2022/06/17 10:49:03;;;;;;;0.40;0.00;;;;;;;30.75;29.64;100828.14;103314;1281;96551;-69
2022/06/17 10:51:34;;;;;;;0.40;0.00;;;;;;;31.73;27.88;100822.14;103177;1281;138174;-69
2022/06/17 10:54:05;;;;;;;0.40;0.00;;;;;;;32.56;27.26;100817.80;103521;1281;109351;-69
2022/06/17 10:56:41;;;;;;;0.40;0.00;;;;;;;33.05;26.42;100818.95;103260;1281;99395;-70
2022/06/17 10:59:11;;;;;;;0.40;0.00;;;;;;;32.62;26.69;100821.63;103191;1281;138092;-69
2022/06/17 11:01:45;;;;;;;0.40;0.00;;;;;;;32.02;27.61;100825.43;103384;1282;95234;-70
2022/06/17 11:04:26;;;;;;;0.40;0.00;;;;;;;31.87;26.93;100821.91;103177;1281;138830;-68
2022/06/17 11:06:57;;;;;;;0.40;0.00;;;;;;;31.14;27.28;100826.69;103356;1281;109787;-70
2022/06/17 11:09:32;;;;;;;0.40;0.00;;;;;;;30.45;28.01;100829.13;103156;1282;138502;-71
2022/06/17 11:12:02;;;;;;;0.40;0.00;;;;;;;29.66;28.62;100824.10;103119;1282;108932;-72
2022/06/17 11:14:38;;;;;;;0.40;0.00;;;;;;;29.03;29.74;100825.50;103182;1281;95236;-69
2022/06/17 11:17:35;;;;;;;0.40;0.00;;;;;;;28.66;30.53;100823.42;103054;1282;138074;-73
2022/06/17 11:20:17;;;;;;;0.40;0.00;;;;;;;28.26;30.87;100827.70;103630;1279;109728;-69
2022/06/17 11:23:47;;;;;;;0.40;0.00;;;;;;;27.85;31.87;100835.02;103853;1279;138325;-69
2022/06/17 11:26:27;;;;;;;0.40;0.00;;;;;;;27.28;32.42;100839.05;103418;1279;108856;-69
2022/06/17 11:29:20;;;;;;;0.40;0.00;;;;;;;26.88;33.28;100842.03;103517;1279;138518;-70
2022/06/17 11:31:49;;;;;;;0.40;0.00;;;;;;;26.48;33.63;100845.89;104084;1279;95239;-70
2022/06/17 11:34:26;;;;;;;0.40;0.00;;;;;;;26.24;33.88;100845.92;103984;1280;138200;-70
2022/06/17 11:36:58;;;;;;;0.40;0.00;;;;;;;26.09;34.25;100843.55;104214;1280;99593;-70
2022/06/17 11:39:33;;;;;;;0.40;0.00;;;;;;;25.87;34.48;100844.41;103923;1280;138713;-70
2022/06/17 11:42:15;;;;;;;0.40;0.00;;;;;;;25.68;34.59;100845.09;104082;1279;95913;-70
2022/06/17 11:45:11;;;;;;;0.40;0.00;;;;;;;25.50;35.02;100844.21;104035;1280;96615;-70
2022/06/17 11:47:47;;;;;;;0.40;0.00;;;;;;;25.21;35.39;100849.63;104093;1279;109775;-70
2022/06/17 11:50:23;;;;;;;0.40;0.00;;;;;;;25.03;35.74;100848.56;104100;1279;97843;-70
2022/06/17 11:53:01;;;;;;;0.40;0.00;;;;;;;24.89;36.45;100848.23;103925;1280;138069;-70
2022/06/17 11:55:32;;;;;;;0.40;0.00;;;;;;;24.85;36.92;100845.06;104159;1279;95279;-70
2022/06/17 11:58:20;;;;;;;0.40;0.00;;;;;;;24.90;37.01;100841.95;104030;1279;138141;-70
2022/06/17 12:00:51;;;;;;;0.40;0.00;;;;;;;24.85;36.80;100845.79;103994;1281;110650;-70
2022/06/17 12:03:39;;;;;;;0.40;0.00;;;;;;;24.80;37.30;100844.91;103748;1279;138462;-70